North Fort Myers, FL

8:35 PM EDT on September 04, 2015 (GMT -0400)
Palms at Waters Edge | | Change Station
CLOSE
Current Station
Personal Weather Station
Location: North Fort Myers, FL
Elevation: 10 ft
Nearby Weather Stations

Elev 10 ft 26.66 °N, 81.89 °W | Updated 38 seconds ago

Partly Cloudy
Partly Cloudy
78.4 °F
Feels Like 81 °F
N
4.7
Wind Variable Wind from NW
Gusts 8.9 mph

Today
High -- | Low -- °F
--% Chance of Precip.
Yesterday
High -- | Low -- °F
Precip. -- in
7:08 AM 7:44 PM
Waning Gibbous, 54% visible
Pressure 29.97 in
Visibility 10.0 miles
Clouds Scattered Clouds 3000 ft
Mostly Cloudy 3700 ft
Overcast 4900 ft
Heat Index 81 °F
Dew Point 74 °F
Humidity 87%
Rainfall 0.02 in
Snow Depth Not available.
UV 0 out of 12
Pollen 4.30 out of 12
Air Quality Not available.
Flu Activity Not available.
SPECI KFMY 050030Z 03013KT 10SM VCTS SCT030 BKN037 OVC049 27/22 A2997 RMK AO2 PK WND 03026/0019 LTG DSNT NE TSB09E24 T02670222
Pressure 29.97 in
Visibility 10.0 miles
Clouds Scattered Clouds 3000 ft
Mostly Cloudy 3700 ft
Overcast 4900 ft
Heat Index 81 °F
Dew Point 74 °F
Humidity 87%
Rainfall 0.02 in
Snow Depth Not available.
UV 0 out of 12
Pollen 4.30 out of 12
Air Quality Not available.
Flu Activity Not available.
SPECI KFMY 050030Z 03013KT 10SM VCTS SCT030 BKN037 OVC049 27/22 A2997 RMK AO2 PK WND 03026/0019 LTG DSNT NE TSB09E24 T02670222

10-Day Weather Forecast

×

Almanac

Astronomy

Sep. 04, 2015 Rise Set
Actual Time
Civil Twilight
Nautical Twilight
Astronomical Twilight
Moon
Length of Visible Light
Length of Day
Tomorrow will be .
, % of the Moon is Illuminated

Today's Extremes

State Highs State Lows

Community

WunderPhotos

Upload Photos

1,852,363 photos uploaded!

WunderBlogs® & News

Nearby

Air Quality

  Air Quality AQ Index Pollutant
Not available.

Snow Depth

Station Depth Elevation

Earthquake Activity

City Distance Mag. Time & Date
Minimum magnitude displayed is 2.5.

Coastal Water Temperatures

Place Temperature

Stations

Nearby Weather Stations

Station Location Temp. Windchill Dew Point Humidity Wind Precip. Elev Updated Type